Time;durP1;ratioP1;P1;durP2;ratioP2;P2;SDS_P1;SDS_P2;PMS_P1;PMS_P2;Temp;Humidity;BMP_temperature;BMP_pressure;BME280_temperature;BME280_humidity;BME280_pressure;Samples;Min_cycle;Max_cycle;Signal;HPM_P1;HPM_P2
2021/07/31 00:00:23;;;;;;;7.32;1.85;;;18.40;99.90;;;;;;6303480;22;20459;-62
2021/07/31 00:02:53;;;;;;;10.43;1.25;;;18.40;99.90;;;;;;6302339;22;20038;-61
2021/07/31 00:05:19;;;;;;;10.48;1.80;;;18.30;99.90;;;;;;6302892;22;20000;-62
2021/07/31 00:07:45;;;;;;;7.97;1.30;;;18.30;99.90;;;;;;6275698;22;20007;-61
2021/07/31 00:10:11;;;;;;;8.38;1.95;;;18.30;99.90;;;;;;6303495;22;20129;-62
2021/07/31 00:12:38;;;;;;;17.40;2.17;;;18.20;99.90;;;;;;6303358;22;20006;-62
2021/07/31 00:15:04;;;;;;;5.70;1.52;;;18.20;99.90;;;;;;6303026;22;20003;-62
2021/07/31 00:17:30;;;;;;;7.57;1.50;;;18.10;99.90;;;;;;6302330;22;20007;-62
2021/07/31 00:19:56;;;;;;;6.70;1.60;;;18.10;99.90;;;;;;6303106;22;20069;-62
2021/07/31 00:22:21;;;;;;;10.10;1.30;;;18.10;99.90;;;;;;6305429;22;20010;-61
2021/07/31 00:24:47;;;;;;;5.00;1.17;;;18.00;99.90;;;;;;6305182;22;20003;-62
2021/07/31 00:27:12;;;;;;;8.18;1.38;;;18.00;99.90;;;;;;6304626;22;20363;-62
2021/07/31 00:29:38;;;;;;;10.02;1.40;;;18.00;99.90;;;;;;6304780;22;20010;-61
2021/07/31 00:32:04;;;;;;;5.40;1.30;;;18.00;99.90;;;;;;6304747;22;20446;-62
2021/07/31 00:34:29;;;;;;;13.45;1.90;;;17.90;99.90;;;;;;6305694;22;20000;-62
2021/07/31 00:36:55;;;;;;;3.83;1.13;;;17.90;99.90;;;;;;6306505;22;20072;-62
2021/07/31 00:39:20;;;;;;;9.13;1.60;;;17.90;99.90;;;;;;6306549;22;20014;-61
2021/07/31 00:41:46;;;;;;;5.00;1.38;;;17.90;99.90;;;;;;6306257;22;20007;-62
2021/07/31 00:44:12;;;;;;;3.72;1.20;;;17.90;99.90;;;;;;6306567;22;19999;-62
2021/07/31 00:46:38;;;;;;;10.18;1.83;;;17.80;99.90;;;;;;6306700;22;20003;-62
2021/07/31 00:49:04;;;;;;;8.20;1.88;;;17.80;99.90;;;;;;6306578;22;20309;-62
2021/07/31 00:51:30;;;;;;;4.78;1.15;;;17.80;99.90;;;;;;6306608;22;20061;-62
2021/07/31 00:53:56;;;;;;;6.68;1.40;;;17.70;99.90;;;;;;6306416;22;19996;-62
2021/07/31 00:56:21;;;;;;;5.30;1.58;;;17.70;99.90;;;;;;6305817;22;20002;-62
2021/07/31 00:58:47;;;;;;;5.25;1.80;;;17.70;99.90;;;;;;6306369;22;20054;-62
2021/07/31 01:01:12;;;;;;;2.85;1.55;;;17.60;99.90;;;;;;6306515;22;20343;-62
2021/07/31 01:03:40;;;;;;;5.97;1.85;;;17.60;99.90;;;;;;6306191;22;20060;-62
2021/07/31 01:06:06;;;;;;;24.58;1.98;;;17.50;99.90;;;;;;6306343;22;20006;-63
2021/07/31 01:08:32;;;;;;;8.48;1.70;;;17.50;99.90;;;;;;6306389;22;20087;-62
2021/07/31 01:10:59;;;;;;;10.23;1.55;;;17.50;99.90;;;;;;6306271;22;20462;-62
2021/07/31 01:13:24;;;;;;;9.32;1.90;;;17.50;99.90;;;;;;6306021;22;20015;-62
2021/07/31 01:16:08;;;;;;;4.05;1.65;;;17.50;99.90;;;;;;6306012;22;20087;-62
2021/07/31 01:18:36;;;;;;;12.05;1.77;;;17.50;99.90;;;;;;6306387;22;20347;-62
2021/07/31 01:21:02;;;;;;;10.10;2.10;;;17.40;99.90;;;;;;6306111;22;20004;-63
2021/07/31 01:23:28;;;;;;;8.35;1.70;;;17.40;99.90;;;;;;6306130;22;20335;-62
2021/07/31 01:25:54;;;;;;;7.65;1.83;;;17.40;99.90;;;;;;6305716;22;20003;-62
2021/07/31 01:28:20;;;;;;;6.70;1.58;;;17.40;99.90;;;;;;6305508;22;20439;-62
2021/07/31 01:30:45;;;;;;;8.10;1.70;;;17.30;99.90;;;;;;6305847;22;20078;-62
2021/07/31 01:33:11;;;;;;;7.32;1.33;;;17.30;99.90;;;;;;6305434;22;20082;-63
2021/07/31 01:35:38;;;;;;;7.68;1.50;;;17.20;99.90;;;;;;6305531;22;19996;-62
2021/07/31 01:38:04;;;;;;;7.05;2.30;;;17.20;99.90;;;;;;6306370;22;20006;-62
2021/07/31 01:40:30;;;;;;;4.22;1.40;;;17.20;99.90;;;;;;6278410;22;19999;-62
2021/07/31 01:42:56;;;;;;;6.13;1.67;;;17.20;99.90;;;;;;6305897;22;20007;-62
2021/07/31 01:45:23;;;;;;;7.40;1.40;;;17.20;99.90;;;;;;6305215;22;20064;-62
2021/07/31 01:47:49;;;;;;;5.30;1.27;;;17.10;99.90;;;;;;6306165;22;20007;-62
2021/07/31 01:50:14;;;;;;;5.88;1.73;;;17.10;99.90;;;;;;6306345;22;20056;-62
2021/07/31 01:52:40;;;;;;;5.97;1.85;;;17.10;99.90;;;;;;6305583;22;20007;-62
2021/07/31 01:55:06;;;;;;;3.88;1.20;;;17.10;99.90;;;;;;6305883;22;20448;-62
2021/07/31 01:57:31;;;;;;;5.22;1.55;;;17.10;99.90;;;;;;6305490;22;20000;-62
2021/07/31 01:59:57;;;;;;;7.20;1.63;;;17.20;99.90;;;;;;6306058;22;20029;-62
2021/07/31 02:02:23;;;;;;;7.18;1.45;;;17.30;99.90;;;;;;6305217;22;20007;-62
2021/07/31 02:04:48;;;;;;;4.35;1.83;;;17.30;99.90;;;;;;6305426;22;19999;-61
2021/07/31 02:07:14;;;;;;;5.30;1.52;;;17.30;99.90;;;;;;6305228;22;20003;-61
2021/07/31 02:09:39;;;;;;;8.23;1.73;;;17.40;99.90;;;;;;6305382;22;20003;-61
2021/07/31 02:12:05;;;;;;;7.07;1.52;;;17.30;99.90;;;;;;6305157;22;20003;-61
2021/07/31 02:14:30;;;;;;;4.57;1.50;;;17.30;99.90;;;;;;6305047;22;20004;-63
2021/07/31 02:16:56;;;;;;;5.13;1.30;;;17.30;99.90;;;;;;6305202;22;19999;-62
2021/07/31 02:19:21;;;;;;;9.07;1.30;;;17.20;99.90;;;;;;6305495;22;20049;-62
2021/07/31 02:21:47;;;;;;;4.80;1.60;;;17.20;99.90;;;;;;6305305;22;20061;-61
2021/07/31 02:24:13;;;;;;;4.90;1.50;;;17.20;99.90;;;;;;6305182;22;20052;-62
2021/07/31 02:26:38;;;;;;;6.20;1.88;;;17.20;99.90;;;;;;6277247;22;20003;-62
2021/07/31 02:29:04;;;;;;;9.10;1.45;;;17.20;99.90;;;;;;6305079;22;20003;-62
2021/07/31 02:31:30;;;;;;;7.82;1.50;;;17.20;99.90;;;;;;6304948;22;20007;-62
2021/07/31 02:33:55;;;;;;;8.73;2.00;;;17.20;99.90;;;;;;6305175;22;19999;-63
2021/07/31 02:36:21;;;;;;;5.72;1.40;;;17.20;99.90;;;;;;6304574;22;19999;-62
2021/07/31 02:38:47;;;;;;;7.15;1.55;;;17.20;99.90;;;;;;6305168;22;20003;-62
2021/07/31 02:41:12;;;;;;;6.43;1.80;;;17.20;99.90;;;;;;6305455;22;20026;-62
2021/07/31 02:43:38;;;;;;;4.30;1.27;;;17.10;99.90;;;;;;6304419;22;20000;-62
2021/07/31 02:46:08;;;;;;;7.95;1.65;;;17.10;99.90;;;;;;6304838;22;20003;-62
2021/07/31 02:48:35;;;;;;;4.65;1.70;;;17.10;99.90;;;;;;6305081;22;20632;-62
2021/07/31 02:51:09;;;;;;;7.03;1.52;;;17.10;99.90;;;;;;6305202;22;20038;-62
2021/07/31 02:53:35;;;;;;;3.13;1.70;;;17.00;99.90;;;;;;6305070;22;20430;-62
2021/07/31 02:56:01;;;;;;;6.70;1.70;;;17.00;99.90;;;;;;6304763;22;20067;-61
2021/07/31 02:58:26;;;;;;;11.75;1.70;;;17.00;99.90;;;;;;6305531;22;20010;-63
2021/07/31 03:00:52;;;;;;;7.45;1.58;;;17.00;99.90;;;;;;6304562;22;20085;-62
2021/07/31 03:03:18;;;;;;;4.00;1.48;;;17.00;99.90;;;;;;6304993;22;20451;-62
2021/07/31 03:05:53;;;;;;;6.63;1.70;;;17.10;99.90;;;;;;6304983;22;20177;-62
2021/07/31 03:08:18;;;;;;;6.05;1.67;;;17.10;99.90;;;;;;6305639;22;20000;-62
2021/07/31 03:10:44;;;;;;;7.18;2.13;;;17.10;99.90;;;;;;6305164;22;20380;-61
2021/07/31 03:13:09;;;;;;;6.88;1.75;;;17.10;99.90;;;;;;6305116;22;20078;-61
2021/07/31 03:15:35;;;;;;;5.63;1.98;;;17.10;99.90;;;;;;6304654;22;20070;-62
2021/07/31 03:18:00;;;;;;;5.53;2.30;;;17.10;99.90;;;;;;6305008;22;19999;-62
2021/07/31 03:20:26;;;;;;;5.57;1.92;;;17.00;99.90;;;;;;6305145;22;20010;-63
2021/07/31 03:22:51;;;;;;;6.18;1.98;;;17.00;99.90;;;;;;6304700;22;20007;-62
2021/07/31 03:25:17;;;;;;;6.35;1.83;;;17.10;99.90;;;;;;6304999;22;20003;-62
2021/07/31 03:27:42;;;;;;;7.43;1.80;;;17.10;99.90;;;;;;6304491;22;20007;-62
2021/07/31 03:30:09;;;;;;;5.88;1.77;;;17.10;99.90;;;;;;6305045;22;20064;-63
2021/07/31 03:32:35;;;;;;;7.20;1.67;;;17.10;99.90;;;;;;6304662;22;20003;-62
2021/07/31 03:35:01;;;;;;;5.90;1.83;;;17.20;99.90;;;;;;6305569;22;20096;-62
2021/07/31 03:37:27;;;;;;;9.10;2.00;;;17.20;99.90;;;;;;6304742;22;19999;-63
2021/07/31 03:39:52;;;;;;;8.15;1.77;;;17.20;99.90;;;;;;6304579;22;20074;-62
2021/07/31 03:42:18;;;;;;;6.07;1.52;;;17.20;99.90;;;;;;6304733;22;20057;-62
2021/07/31 03:44:43;;;;;;;4.28;1.50;;;17.30;99.90;;;;;;6304842;22;20007;-62
2021/07/31 03:47:09;;;;;;;7.25;1.70;;;17.30;99.90;;;;;;6304399;22;20007;-62
2021/07/31 03:49:34;;;;;;;3.67;1.58;;;17.30;99.90;;;;;;6304700;22;20066;-63
2021/07/31 03:52:00;;;;;;;8.65;1.70;;;17.30;99.90;;;;;;6304687;22;20049;-62
2021/07/31 03:54:25;;;;;;;5.80;2.00;;;17.30;99.90;;;;;;6305503;22;20003;-62
2021/07/31 03:56:51;;;;;;;5.13;1.58;;;17.30;99.90;;;;;;6306822;22;20455;-62
2021/07/31 03:59:17;;;;;;;8.45;1.40;;;17.30;99.90;;;;;;6307037;22;20003;-62
2021/07/31 04:01:42;;;;;;;4.25;1.58;;;17.30;99.90;;;;;;6306795;22;20011;-63
2021/07/31 04:04:08;;;;;;;4.75;1.95;;;17.30;99.90;;;;;;6306932;22;20013;-62
2021/07/31 04:06:33;;;;;;;7.03;1.77;;;17.30;99.90;;;;;;6306494;22;20013;-62
2021/07/31 04:08:59;;;;;;;7.53;1.77;;;17.30;99.90;;;;;;6306778;22;19999;-62
2021/07/31 04:11:25;;;;;;;9.30;1.52;;;17.40;99.90;;;;;;6306620;22;20006;-62
2021/07/31 04:13:50;;;;;;;4.18;1.50;;;17.40;99.90;;;;;;6306795;22;20008;-62
2021/07/31 04:16:16;;;;;;;6.18;1.52;;;17.40;99.90;;;;;;6306586;22;20256;-62
2021/07/31 04:18:41;;;;;;;6.65;1.83;;;17.40;99.90;;;;;;6306815;22;20003;-63
2021/07/31 04:21:08;;;;;;;9.38;1.90;;;17.40;99.90;;;;;;6306820;22;20003;-62
2021/07/31 04:23:35;;;;;;;7.00;2.15;;;17.40;99.90;;;;;;6306428;22;20455;-62
2021/07/31 04:26:15;;;;;;;7.72;1.77;;;17.40;99.90;;;;;;6306715;22;20030;-62
2021/07/31 04:28:41;;;;;;;5.68;1.80;;;17.40;99.90;;;;;;6306593;22;20007;-62
2021/07/31 04:31:11;;;;;;;3.88;1.85;;;17.40;99.90;;;;;;6306606;22;20006;-62
2021/07/31 04:33:37;;;;;;;5.25;1.90;;;17.40;99.90;;;;;;6307184;22;20003;-61
2021/07/31 04:36:03;;;;;;;5.88;2.10;;;17.40;99.90;;;;;;6307013;22;19995;-63
2021/07/31 04:38:30;;;;;;;10.48;2.05;;;17.40;99.90;;;;;;6307058;22;20000;-63
2021/07/31 04:40:56;;;;;;;9.60;1.73;;;17.40;99.90;;;;;;6306068;22;20018;-62
2021/07/31 04:43:21;;;;;;;9.60;1.80;;;17.40;99.90;;;;;;6306894;22;20007;-62
2021/07/31 04:45:47;;;;;;;3.42;1.77;;;17.40;99.90;;;;;;6306338;22;20006;-63
2021/07/31 04:48:12;;;;;;;3.13;1.80;;;17.40;99.90;;;;;;6306615;22;20331;-61
2021/07/31 04:50:38;;;;;;;6.22;1.88;;;17.30;99.90;;;;;;6306137;22;20007;-62
2021/07/31 04:53:03;;;;;;;10.98;2.13;;;17.30;99.90;;;;;;6279151;22;20450;-62
2021/07/31 04:55:29;;;;;;;7.00;2.13;;;17.40;99.90;;;;;;6306184;22;20354;-62
2021/07/31 04:57:54;;;;;;;8.13;1.40;;;17.30;99.90;;;;;;6306518;22;19999;-63
2021/07/31 05:00:20;;;;;;;11.85;2.42;;;17.40;99.90;;;;;;6306336;22;20415;-61
2021/07/31 05:02:46;;;;;;;5.68;1.90;;;17.30;99.90;;;;;;6305305;22;20019;-57
2021/07/31 05:05:11;;;;;;;4.32;1.83;;;17.40;99.90;;;;;;6304360;22;20129;-57
2021/07/31 05:07:37;;;;;;;5.90;1.80;;;17.40;99.90;;;;;;6303942;22;20023;-54
2021/07/31 05:10:02;;;;;;;7.65;2.95;;;17.40;99.90;;;;;;6305047;22;20049;-53
2021/07/31 05:12:28;;;;;;;7.15;2.25;;;17.40;99.90;;;;;;6304698;22;20393;-56
2021/07/31 05:14:54;;;;;;;6.75;2.00;;;17.40;99.90;;;;;;6304010;22;20434;-59
2021/07/31 05:17:20;;;;;;;7.55;2.08;;;17.50;99.90;;;;;;6304827;22;20376;-55
2021/07/31 05:19:46;;;;;;;5.38;1.80;;;17.50;99.90;;;;;;6303869;22;20004;-55
2021/07/31 05:22:16;;;;;;;7.13;2.38;;;17.40;99.90;;;;;;6305419;22;20014;-58
2021/07/31 05:24:42;;;;;;;5.63;2.00;;;17.50;99.90;;;;;;6303768;22;20060;-54
2021/07/31 05:27:08;;;;;;;7.63;3.35;;;17.50;99.90;;;;;;6304927;22;20042;-59
2021/07/31 05:29:34;;;;;;;5.88;1.90;;;17.40;99.90;;;;;;6304546;22;19999;-60
2021/07/31 05:32:00;;;;;;;4.95;2.30;;;17.50;99.90;;;;;;6304544;22;19999;-54
2021/07/31 05:34:26;;;;;;;7.88;2.65;;;17.60;99.90;;;;;;6305467;22;20019;-57
2021/07/31 05:36:51;;;;;;;7.60;1.98;;;17.60;99.90;;;;;;6304799;22;20010;-60
2021/07/31 05:39:17;;;;;;;10.27;2.72;;;17.60;99.90;;;;;;6304140;22;20006;-58
2021/07/31 05:41:42;;;;;;;8.05;2.45;;;17.60;99.90;;;;;;6304324;22;20003;-57
2021/07/31 05:44:08;;;;;;;5.78;2.22;;;17.60;99.90;;;;;;6305124;22;20061;-57
2021/07/31 05:46:34;;;;;;;4.32;1.63;;;17.60;99.90;;;;;;6304102;22;20014;-56
2021/07/31 05:48:59;;;;;;;6.53;1.70;;;17.60;99.90;;;;;;6304299;22;20074;-59
2021/07/31 05:51:25;;;;;;;8.70;2.00;;;17.70;99.90;;;;;;6304162;22;20344;-52
2021/07/31 05:53:50;;;;;;;4.53;2.05;;;17.60;99.90;;;;;;6304995;22;20331;-55
2021/07/31 05:56:16;;;;;;;7.63;1.73;;;17.60;99.90;;;;;;6303979;22;20068;-58
2021/07/31 05:58:42;;;;;;;8.77;2.25;;;17.50;99.90;;;;;;6304397;22;20006;-54
2021/07/31 06:01:08;;;;;;;5.40;2.03;;;17.40;99.90;;;;;;6304021;22;20035;-59
2021/07/31 06:03:34;;;;;;;8.88;2.08;;;17.50;99.90;;;;;;6304178;22;20003;-54
2021/07/31 06:06:00;;;;;;;6.68;1.80;;;17.50;99.90;;;;;;6304181;22;20335;-58
2021/07/31 06:08:26;;;;;;;5.63;2.17;;;17.50;99.90;;;;;;6304006;22;20010;-54
2021/07/31 06:11:02;;;;;;;5.50;2.28;;;17.50;99.90;;;;;;6303847;22;20494;-54
2021/07/31 06:13:28;;;;;;;4.53;1.95;;;17.40;99.90;;;;;;6303992;22;20427;-55
2021/07/31 06:15:54;;;;;;;4.57;1.88;;;17.60;99.90;;;;;;6302699;22;20057;-55
2021/07/31 06:18:19;;;;;;;3.53;1.40;;;17.60;99.90;;;;;;6303371;22;20382;-55
2021/07/31 06:20:45;;;;;;;4.65;2.00;;;17.50;99.90;;;;;;6304520;22;20003;-61
2021/07/31 06:23:10;;;;;;;9.50;1.75;;;17.60;99.90;;;;;;6304099;22;20428;-55
2021/07/31 06:25:36;;;;;;;7.00;1.98;;;17.60;99.90;;;;;;6303295;22;20450;-56
2021/07/31 06:28:01;;;;;;;7.38;1.83;;;17.60;99.90;;;;;;6304473;22;20000;-57
2021/07/31 06:30:27;;;;;;;5.55;1.80;;;17.60;99.90;;;;;;6303324;22;20335;-58
2021/07/31 06:32:52;;;;;;;4.03;1.58;;;17.60;99.90;;;;;;6304041;22;20004;-54
2021/07/31 06:35:18;;;;;;;10.07;2.55;;;17.60;99.90;;;;;;6303763;22;20003;-57
2021/07/31 06:37:43;;;;;;;6.18;1.98;;;17.60;99.90;;;;;;6304028;22;20003;-58
2021/07/31 06:40:10;;;;;;;4.50;2.10;;;17.60;99.90;;;;;;6303521;22;20067;-55
2021/07/31 06:42:35;;;;;;;7.43;2.15;;;17.60;99.90;;;;;;6302815;22;20377;-56
2021/07/31 06:45:01;;;;;;;4.82;1.75;;;17.70;99.90;;;;;;6303763;22;19999;-57
2021/07/31 06:47:26;;;;;;;8.95;1.85;;;17.70;99.90;;;;;;6303262;22;20074;-58
2021/07/31 06:49:52;;;;;;;5.03;2.22;;;17.70;99.90;;;;;;6303964;22;20389;-56
2021/07/31 06:52:17;;;;;;;11.02;2.28;;;17.80;99.90;;;;;;6303855;22;20181;-59
2021/07/31 06:54:43;;;;;;;8.13;2.03;;;18.00;99.90;;;;;;6303352;22;20003;-57
2021/07/31 06:57:09;;;;;;;5.45;1.55;;;18.00;99.90;;;;;;6303718;22;20003;-59
2021/07/31 06:59:35;;;;;;;5.25;1.83;;;18.00;99.90;;;;;;6304002;22;19999;-58
2021/07/31 07:02:01;;;;;;;7.78;2.08;;;18.10;99.90;;;;;;6276027;22;20655;-59
2021/07/31 07:04:26;;;;;;;8.75;2.40;;;18.10;99.90;;;;;;6304027;22;20006;-58
2021/07/31 07:06:52;;;;;;;6.93;1.92;;;18.10;99.90;;;;;;6303367;22;20067;-54
2021/07/31 07:09:17;;;;;;;7.28;1.85;;;18.30;99.90;;;;;;6302495;22;20392;-61
2021/07/31 07:11:43;;;;;;;8.85;2.00;;;18.40;99.90;;;;;;6304330;22;20506;-53
2021/07/31 07:14:09;;;;;;;5.63;1.98;;;18.20;99.90;;;;;;6304215;22;20003;-59
2021/07/31 07:16:35;;;;;;;7.78;1.98;;;18.30;99.90;;;;;;6302803;22;20097;-58
2021/07/31 07:19:00;;;;;;;7.45;2.58;;;18.30;99.90;;;;;;6303652;22;20003;-59
2021/07/31 07:21:26;;;;;;;6.40;1.70;;;18.40;99.90;;;;;;6302705;22;20335;-55
2021/07/31 07:23:51;;;;;;;7.20;1.92;;;18.40;99.90;;;;;;6303565;22;20067;-57
2021/07/31 07:26:17;;;;;;;7.72;1.98;;;18.50;99.90;;;;;;6302217;22;20003;-58
2021/07/31 07:28:44;;;;;;;7.30;1.98;;;18.60;99.90;;;;;;6303616;22;20011;-55
2021/07/31 07:31:13;;;;;;;6.35;2.00;;;18.60;99.90;;;;;;6302818;22;20007;-57
2021/07/31 07:33:40;;;;;;;6.32;2.05;;;18.60;99.90;;;;;;6303275;22;20033;-57
2021/07/31 07:36:16;;;;;;;5.45;2.10;;;18.60;99.90;;;;;;6303189;22;20003;-54
2021/07/31 07:38:43;;;;;;;5.85;1.80;;;18.70;99.90;;;;;;6303664;22;20089;-54
2021/07/31 07:41:10;;;;;;;14.73;2.47;;;18.60;99.90;;;;;;6303759;22;20480;-53
2021/07/31 07:43:36;;;;;;;9.57;2.33;;;18.60;99.90;;;;;;6303312;22;20385;-58
2021/07/31 07:46:02;;;;;;;7.35;1.92;;;18.60;99.90;;;;;;6303161;22;20082;-55
2021/07/31 07:48:27;;;;;;;9.50;1.85;;;18.60;99.90;;;;;;6303818;22;20003;-57
2021/07/31 07:50:53;;;;;;;6.45;1.90;;;18.60;99.90;;;;;;6303340;22;20003;-55
2021/07/31 07:53:19;;;;;;;5.25;1.33;;;18.60;99.90;;;;;;6303452;22;20025;-55
2021/07/31 07:55:45;;;;;;;11.43;2.13;;;18.70;99.90;;;;;;6303033;22;20003;-55
2021/07/31 07:58:10;;;;;;;13.40;2.22;;;18.60;99.90;;;;;;6303566;22;20086;-56
2021/07/31 08:00:37;;;;;;;5.07;1.67;;;18.60;99.90;;;;;;6302411;22;20396;-58
2021/07/31 08:03:03;;;;;;;6.90;2.25;;;18.70;99.90;;;;;;6303457;22;20017;-55
2021/07/31 08:05:28;;;;;;;5.95;2.25;;;18.70;99.90;;;;;;6303016;22;20310;-59
2021/07/31 08:07:54;;;;;;;5.18;2.80;;;18.80;99.90;;;;;;6303114;22;19999;-58
2021/07/31 08:10:20;;;;;;;8.88;2.17;;;18.80;99.90;;;;;;6303207;22;20007;-58
2021/07/31 08:12:45;;;;;;;5.75;1.98;;;18.90;99.90;;;;;;6302807;22;20427;-60
2021/07/31 08:15:11;;;;;;;8.48;2.08;;;18.90;99.90;;;;;;6302720;22;20003;-59
2021/07/31 08:17:37;;;;;;;10.70;2.10;;;19.00;99.90;;;;;;6302760;22;20001;-61
2021/07/31 08:20:04;;;;;;;9.80;2.20;;;19.10;99.90;;;;;;6302888;22;20692;-59
2021/07/31 08:22:30;;;;;;;7.38;2.10;;;19.30;99.90;;;;;;6301164;22;20006;-58
2021/07/31 08:24:55;;;;;;;10.05;2.50;;;19.50;99.90;;;;;;6302810;22;19999;-61
2021/07/31 08:27:21;;;;;;;11.38;1.77;;;19.50;99.90;;;;;;6301579;22;20007;-60
2021/07/31 08:29:47;;;;;;;5.43;1.92;;;19.60;99.90;;;;;;6303077;22;20004;-59
2021/07/31 08:32:12;;;;;;;5.55;1.67;;;19.50;99.90;;;;;;6302698;22;20004;-56
2021/07/31 08:34:38;;;;;;;8.88;2.25;;;19.40;99.90;;;;;;6303203;22;20023;-58
2021/07/31 08:37:04;;;;;;;9.10;2.30;;;19.30;99.90;;;;;;6302627;22;20010;-59
2021/07/31 08:39:29;;;;;;;5.90;1.73;;;19.20;99.90;;;;;;6301925;22;19999;-55
2021/07/31 08:41:55;;;;;;;9.98;1.60;;;19.30;99.90;;;;;;6303277;22;20057;-60
2021/07/31 08:44:21;;;;;;;8.50;1.98;;;19.20;99.90;;;;;;6304500;22;19999;-59
2021/07/31 08:46:49;;;;;;;3.97;1.42;;;19.10;99.90;;;;;;6304753;22;20324;-59
2021/07/31 08:49:18;;;;;;;5.30;1.63;;;19.10;99.90;;;;;;6304875;22;20431;-58
2021/07/31 08:51:46;;;;;;;3.47;1.60;;;19.10;99.90;;;;;;6305124;22;20573;-59
2021/07/31 08:54:12;;;;;;;2.55;1.38;;;19.10;99.90;;;;;;6304982;22;20447;-60
2021/07/31 08:56:44;;;;;;;6.35;1.63;;;19.10;99.90;;;;;;6303566;22;20044;-60
2021/07/31 08:59:10;;;;;;;4.53;1.45;;;19.10;99.90;;;;;;6304826;22;20494;-61
2021/07/31 09:01:35;;;;;;;10.88;1.67;;;19.20;99.90;;;;;;6304441;22;20010;-58
2021/07/31 09:04:13;;;;;;;3.28;1.45;;;19.30;99.90;;;;;;6304827;22;19999;-60
2021/07/31 09:06:38;;;;;;;3.15;1.80;;;19.40;99.90;;;;;;6305680;22;20007;-61
2021/07/31 09:09:04;;;;;;;7.65;1.88;;;19.50;99.90;;;;;;6304733;22;20400;-58
2021/07/31 09:11:30;;;;;;;8.35;1.67;;;19.50;99.90;;;;;;6304425;22;20108;-57
2021/07/31 09:14:09;;;;;;;1.70;1.30;;;19.40;99.90;;;;;;6304237;22;20419;-58
2021/07/31 09:16:36;;;;;;;11.18;2.63;;;19.40;99.90;;;;;;6304595;22;20006;-60
2021/07/31 09:19:03;;;;;;;4.97;1.75;;;19.50;99.90;;;;;;6304629;22;20586;-58
2021/07/31 09:21:30;;;;;;;3.97;2.00;;;19.60;99.90;;;;;;6304632;22;20007;-56
2021/07/31 09:23:55;;;;;;;3.20;1.70;;;19.70;99.90;;;;;;6304659;22;20060;-60
2021/07/31 09:26:22;;;;;;;4.88;1.42;;;19.80;99.90;;;;;;6304096;22;20007;-58
2021/07/31 09:29:10;;;;;;;7.63;1.90;;;19.90;99.90;;;;;;6304720;22;20007;-55
2021/07/31 09:31:54;;;;;;;2.45;1.17;;;20.20;99.90;;;;;;6303530;22;20038;-55
2021/07/31 09:34:28;;;;;;;4.60;1.73;;;20.10;99.90;;;;;;6304165;22;20000;-56
2021/07/31 09:37:16;;;;;;;5.32;1.73;;;19.90;99.90;;;;;;6303982;22;19995;-58
2021/07/31 09:39:55;;;;;;;3.72;1.42;;;19.80;99.90;;;;;;6304331;22;20005;-55
2021/07/31 09:42:25;;;;;;;5.00;1.88;;;19.50;99.90;;;;;;6304542;22;20007;-57
2021/07/31 09:44:51;;;;;;;8.25;1.90;;;19.40;99.90;;;;;;6304531;22;20011;-53
2021/07/31 09:47:16;;;;;;;9.40;1.85;;;19.30;99.90;;;;;;6303688;22;20398;-57
2021/07/31 09:49:42;;;;;;;5.88;2.10;;;19.20;99.90;;;;;;6304145;22;20353;-54
2021/07/31 09:52:17;;;;;;;7.03;1.67;;;19.30;99.90;;;;;;6304179;22;20000;-57
2021/07/31 09:54:43;;;;;;;6.65;1.45;;;19.40;99.90;;;;;;6304573;22;20007;-57
2021/07/31 09:57:12;;;;;;;5.20;1.75;;;19.80;99.90;;;;;;6303812;22;20003;-57
2021/07/31 09:59:44;;;;;;;4.43;1.52;;;20.10;99.90;;;;;;6303442;22;20363;-59
2021/07/31 10:02:17;;;;;;;4.53;1.50;;;20.40;99.90;;;;;;6302965;22;20038;-58
2021/07/31 10:04:44;;;;;;;6.78;1.50;;;20.70;99.90;;;;;;6304074;22;20339;-58
2021/07/31 10:07:11;;;;;;;8.60;1.20;;;20.80;99.90;;;;;;6304264;22;20022;-57
2021/07/31 10:09:40;;;;;;;3.75;1.15;;;20.90;99.90;;;;;;6304084;22;20030;-60
2021/07/31 10:12:09;;;;;;;3.33;1.42;;;20.80;99.90;;;;;;6303835;22;20077;-60
2021/07/31 10:14:35;;;;;;;5.32;1.85;;;20.60;99.90;;;;;;6303978;22;20336;-61
2021/07/31 10:17:00;;;;;;;4.03;1.85;;;20.40;99.90;;;;;;6304061;22;19995;-60
2021/07/31 10:19:26;;;;;;;6.47;1.35;;;20.30;99.90;;;;;;6303927;22;20029;-59
2021/07/31 10:22:00;;;;;;;5.65;1.65;;;20.30;99.90;;;;;;6303223;22;20108;-59
2021/07/31 10:24:30;;;;;;;4.45;1.50;;;20.30;99.90;;;;;;6303357;22;20087;-56
2021/07/31 10:27:17;;;;;;;3.58;1.30;;;20.10;99.90;;;;;;6302921;22;20007;-57
2021/07/31 10:29:47;;;;;;;6.05;2.25;;;20.10;99.90;;;;;;6303457;22;20026;-54
2021/07/31 10:32:21;;;;;;;6.43;1.77;;;20.10;99.90;;;;;;6303131;22;20011;-58
2021/07/31 10:35:04;;;;;;;6.13;1.92;;;20.60;99.90;;;;;;6303487;22;19999;-57
2021/07/31 10:37:38;;;;;;;4.57;2.00;;;20.90;99.90;;;;;;6303800;22;20071;-58
2021/07/31 10:40:09;;;;;;;9.23;1.90;;;20.80;99.90;;;;;;6303231;22;20025;-57
2021/07/31 10:42:47;;;;;;;10.52;1.80;;;20.80;99.90;;;;;;6303671;22;20006;-59
2021/07/31 10:45:15;;;;;;;3.85;1.65;;;20.60;99.90;;;;;;6303260;22;20011;-59
2021/07/31 10:47:41;;;;;;;6.15;1.80;;;20.40;99.90;;;;;;6303815;22;19999;-59
2021/07/31 10:50:22;;;;;;;3.90;2.20;;;20.40;99.90;;;;;;6303664;22;20010;-57
2021/07/31 10:52:51;;;;;;;5.68;1.45;;;20.70;99.90;;;;;;6303856;22;20006;-57
2021/07/31 10:55:36;;;;;;;5.30;2.30;;;21.10;99.90;;;;;;6303029;22;20019;-58
2021/07/31 10:58:01;;;;;;;3.45;1.60;;;21.50;99.90;;;;;;6303669;22;20006;-57
2021/07/31 11:00:54;;;;;;;3.22;2.10;;;21.50;99.90;;;;;;6302913;22;20415;-58
2021/07/31 11:03:28;;;;;;;4.75;1.60;;;21.30;99.90;;;;;;6255753;22;20485;-58
2021/07/31 11:06:05;;;;;;;4.05;2.10;;;20.90;99.90;;;;;;6302238;22;20377;-57
2021/07/31 11:08:55;;;;;;;4.82;1.80;;;20.50;99.90;;;;;;6303536;22;20000;-54
2021/07/31 11:11:27;;;;;;;5.38;1.65;;;21.00;99.90;;;;;;6302770;22;20499;-56
2021/07/31 11:13:54;;;;;;;2.67;1.50;;;21.50;99.90;;;;;;6300867;22;20427;-56
2021/07/31 11:16:21;;;;;;;3.55;1.33;;;21.80;99.90;;;;;;6299667;22;20009;-54
2021/07/31 11:18:57;;;;;;;4.85;2.03;;;22.00;99.90;;;;;;6300142;22;20003;-58
2021/07/31 11:21:35;;;;;;;4.35;1.70;;;22.10;99.90;;;;;;6300778;22;20006;-58
2021/07/31 11:24:06;;;;;;;4.68;1.63;;;21.70;99.90;;;;;;6301035;22;20462;-55
2021/07/31 11:26:52;;;;;;;4.28;1.85;;;21.50;99.90;;;;;;6302398;22;20007;-56
2021/07/31 11:29:20;;;;;;;3.63;1.30;;;21.40;99.90;;;;;;6302813;22;20003;-58
2021/07/31 11:32:00;;;;;;;5.55;2.05;;;21.30;99.90;;;;;;6302912;22;19999;-58
2021/07/31 11:34:25;;;;;;;6.20;2.05;;;21.30;99.90;;;;;;6302656;22;20435;-57
2021/07/31 11:36:58;;;;;;;2.80;1.77;;;21.40;99.90;;;;;;6300850;22;19996;-58
2021/07/31 11:39:24;;;;;;;10.35;2.58;;;21.30;99.90;;;;;;6302683;22;20006;-58
2021/07/31 11:41:50;;;;;;;6.43;1.85;;;21.30;99.90;;;;;;6302283;22;19999;-57
2021/07/31 11:44:28;;;;;;;4.72;1.45;;;21.70;99.90;;;;;;6301939;22;20006;-58
2021/07/31 11:46:54;;;;;;;4.45;1.60;;;22.10;99.90;;;;;;6301726;22;20416;-58
2021/07/31 11:49:35;;;;;;;3.15;1.40;;;22.60;99.90;;;;;;6302477;22;20003;-57
2021/07/31 11:52:03;;;;;;;4.07;1.42;;;22.70;99.90;;;;;;6302487;22;20454;-57
2021/07/31 11:54:30;;;;;;;5.28;1.30;;;22.70;99.90;;;;;;6302314;22;20014;-57
2021/07/31 11:56:57;;;;;;;7.65;1.63;;;22.40;99.90;;;;;;6302194;22;20004;-56
2021/07/31 11:59:27;;;;;;;2.83;1.38;;;21.90;99.90;;;;;;6302372;22;19999;-56
2021/07/31 12:01:56;;;;;;;4.38;1.55;;;21.70;99.90;;;;;;6301957;22;20011;-56
2021/07/31 12:04:51;;;;;;;7.03;1.67;;;21.60;99.90;;;;;;6302454;22;20003;-56
2021/07/31 12:07:20;;;;;;;4.38;1.40;;;21.30;99.90;;;;;;6303360;22;20003;-56
2021/07/31 12:10:10;;;;;;;4.18;1.92;;;21.00;99.90;;;;;;6302388;22;20003;-55
2021/07/31 12:12:37;;;;;;;5.75;1.67;;;21.00;99.90;;;;;;6302316;22;19999;-54
2021/07/31 12:15:12;;;;;;;5.07;1.50;;;20.90;99.90;;;;;;6302167;22;20446;-56
2021/07/31 12:17:39;;;;;;;4.35;1.80;;;20.90;99.90;;;;;;6303495;22;20001;-56
2021/07/31 12:20:05;;;;;;;3.03;1.38;;;21.20;99.90;;;;;;6304437;22;19999;-57
2021/07/31 12:22:37;;;;;;;2.28;1.50;;;21.40;99.90;;;;;;6304218;22;19999;-57
2021/07/31 12:25:09;;;;;;;4.97;1.67;;;21.50;99.90;;;;;;6304329;22;20425;-53
2021/07/31 12:27:54;;;;;;;1.98;1.17;;;21.50;99.90;;;;;;6304211;22;20090;-56
2021/07/31 12:30:27;;;;;;;2.13;1.17;;;21.90;99.90;;;;;;6305394;22;19996;-56
2021/07/31 12:33:13;;;;;;;5.55;1.25;;;22.30;99.90;;;;;;6303891;22;20435;-55
2021/07/31 12:35:46;;;;;;;1.08;0.98;;;22.60;99.90;;;;;;6304747;22;19999;-54
2021/07/31 12:38:23;;;;;;;2.63;1.23;;;22.90;99.90;;;;;;6277065;22;20004;-55
2021/07/31 12:40:54;;;;;;;5.05;1.48;;;23.40;99.90;;;;;;6304086;22;20463;-56
2021/07/31 12:43:21;;;;;;;4.45;1.30;;;23.80;99.90;;;;;;6304271;22;20003;-58
2021/07/31 12:45:46;;;;;;;2.13;1.20;;;23.50;99.90;;;;;;6303820;22;20007;-56
2021/07/31 12:48:13;;;;;;;3.25;1.40;;;23.30;99.90;;;;;;6303546;22;20375;-58